Time;durP1;ratioP1;P1;durP2;ratioP2;P2;SDS_P1;SDS_P2;PMS_P1;PMS_P2;Temp;Humidity;BMP_temperature;BMP_pressure;BME280_temperature;BME280_humidity;BME280_pressure;Samples;Min_cycle;Max_cycle;Signal;HPM_P1;HPM_P2
2021/06/18 00:01:08;;;;;;;8.70;5.93;;;;;;;23.60;47.55;100904.78;4996290;28;20251;-69
2021/06/18 00:03:33;;;;;;;9.60;6.10;;;;;;;23.62;47.56;100908.22;5013191;28;20204;-69
2021/06/18 00:05:59;;;;;;;8.97;5.83;;;;;;;23.55;47.77;100905.28;5013508;28;20172;-69
2021/06/18 00:08:25;;;;;;;8.50;5.43;;;;;;;23.52;47.71;100893.84;5014020;28;20172;-69
2021/06/18 00:10:50;;;;;;;8.67;5.60;;;;;;;23.53;47.77;100903.72;4998637;28;20169;-69
2021/06/18 00:13:16;;;;;;;8.33;5.90;;;;;;;23.38;48.26;100906.16;4995709;28;20215;-68
2021/06/18 00:15:41;;;;;;;7.80;5.83;;;;;;;23.31;48.51;100905.13;5013149;28;20193;-67
2021/06/18 00:18:06;;;;;;;7.63;6.20;;;;;;;23.23;48.73;100905.06;4995857;28;20177;-68
2021/06/18 00:20:31;;;;;;;8.20;5.40;;;;;;;23.16;48.97;100904.88;5013602;28;20176;-68
2021/06/18 00:22:57;;;;;;;7.00;6.30;;;;;;;23.12;49.27;100908.94;5012989;28;20204;-68
2021/06/18 00:25:22;;;;;;;7.90;5.40;;;;;;;23.18;49.07;100902.00;5013040;28;20176;-68
2021/06/18 00:27:47;;;;;;;7.77;5.37;;;;;;;23.07;49.59;100905.84;5013062;28;20180;-68
2021/06/18 00:30:13;;;;;;;9.77;6.10;;;;;;;23.04;49.63;100890.69;4979174;28;20173;-68
2021/06/18 00:32:39;;;;;;;8.90;5.63;;;;;;;22.96;49.63;100893.34;4979274;28;20235;-68
2021/06/18 00:35:05;;;;;;;7.50;5.60;;;;;;;23.02;49.38;100886.38;4979295;28;20197;-68
2021/06/18 00:37:30;;;;;;;7.43;6.37;;;;;;;23.00;49.83;100891.16;5013136;28;20244;-68
2021/06/18 00:39:55;;;;;;;6.17;5.40;;;;;;;22.80;50.35;100897.78;5012903;28;20207;-67
2021/06/18 00:42:21;;;;;;;7.73;5.60;;;;;;;22.71;50.71;100886.84;5013240;28;20534;-70
2021/06/18 00:44:46;;;;;;;8.53;5.83;;;;;;;22.66;51.24;100891.88;4995157;28;20220;-68
2021/06/18 00:47:18;;;;;;;8.57;6.10;;;;;;;22.52;51.46;100894.31;5013369;28;20212;-68
2021/06/18 00:49:43;;;;;;;9.30;6.00;;;;;;;22.35;51.88;100886.03;4995540;28;20592;-67
2021/06/18 00:52:09;;;;;;;8.03;6.17;;;;;;;22.30;52.10;100890.19;5012744;28;20173;-69
2021/06/18 00:54:36;;;;;;;8.00;6.10;;;;;;;22.20;52.50;100886.72;5012593;28;20197;-68
2021/06/18 00:57:01;;;;;;;8.80;5.90;;;;;;;22.15;52.16;100890.75;5012767;28;20256;-68
2021/06/18 00:59:27;;;;;;;10.67;5.60;;;;;;;22.16;52.27;100891.59;5012707;28;20260;-68
2021/06/18 01:01:53;;;;;;;6.67;5.97;;;;;;;22.20;51.77;100884.00;4995152;28;20251;-68
2021/06/18 01:04:19;;;;;;;8.93;6.07;;;;;;;22.20;52.26;100886.72;5012526;28;20196;-68
2021/06/18 01:06:50;;;;;;;6.33;5.50;;;;;;;22.06;52.28;100883.53;4995161;28;20185;-68
2021/06/18 01:09:16;;;;;;;7.33;5.97;;;;;;;21.99;52.85;100887.84;5013621;28;20162;-67
2021/06/18 01:11:48;;;;;;;8.13;5.70;;;;;;;21.99;52.64;100882.41;4999069;28;20311;-68
2021/06/18 01:14:19;;;;;;;7.13;5.77;;;;;;;22.00;52.33;100889.56;4983226;28;20700;-68
2021/06/18 01:17:03;;;;;;;11.27;6.10;;;;;;;21.95;52.72;100880.16;4983016;28;20196;-68
2021/06/18 01:19:28;;;;;;;7.10;6.23;;;;;;;21.89;53.07;100876.16;4999607;28;20533;-68
2021/06/18 01:21:56;;;;;;;11.00;6.20;;;;;;;21.90;53.02;100882.44;5016300;28;20184;-68
2021/06/18 01:24:31;;;;;;;7.50;5.90;;;;;;;21.94;52.88;100875.72;5015975;28;20199;-68
2021/06/18 01:27:11;;;;;;;7.00;6.00;;;;;;;21.89;52.85;100881.59;5015910;28;20169;-68
2021/06/18 01:29:46;;;;;;;10.37;5.80;;;;;;;21.99;52.60;100866.09;4998804;28;20180;-68
2021/06/18 01:32:15;;;;;;;8.40;5.87;;;;;;;21.95;52.44;100872.84;5000907;28;20279;-67
2021/06/18 01:34:41;;;;;;;7.67;5.90;;;;;;;21.96;52.50;100874.56;5013452;28;20688;-68
2021/06/18 01:37:11;;;;;;;8.87;6.20;;;;;;;21.89;52.72;100876.16;5013218;28;20181;-67
2021/06/18 01:39:36;;;;;;;7.30;5.97;;;;;;;21.86;52.90;100881.91;5007389;28;20561;-68
2021/06/18 01:42:03;;;;;;;7.00;5.90;;;;;;;21.78;53.33;100882.66;5016686;28;20184;-68
2021/06/18 01:44:29;;;;;;;7.87;5.90;;;;;;;21.85;52.87;100885.63;4998166;28;20192;-68
2021/06/18 01:46:56;;;;;;;7.13;5.83;;;;;;;21.80;52.94;100882.50;4981699;28;20173;-69
2021/06/18 01:49:22;;;;;;;7.87;5.93;;;;;;;21.78;53.12;100881.81;5015361;28;20173;-68
2021/06/18 01:51:49;;;;;;;7.83;6.20;;;;;;;21.77;53.22;100880.09;4997834;28;20173;-69
2021/06/18 01:54:15;;;;;;;7.93;6.40;;;;;;;21.77;53.24;100886.41;4997798;28;20219;-68
2021/06/18 01:56:41;;;;;;;8.70;6.77;;;;;;;21.83;53.09;100885.78;4998292;28;20193;-68
2021/06/18 01:59:06;;;;;;;8.47;5.93;;;;;;;21.82;53.24;100878.63;5015722;28;20542;-69
2021/06/18 02:01:37;;;;;;;9.97;6.57;;;;;;;21.73;53.48;100882.28;4997869;28;20173;-69
2021/06/18 02:04:05;;;;;;;10.53;6.47;;;;;;;21.72;53.49;100882.44;5020067;23;20719;-73
2021/06/18 02:06:32;;;;;;;8.23;6.53;;;;;;;21.70;53.66;100876.28;4998244;28;20208;-73
2021/06/18 02:08:59;;;;;;;8.13;6.03;;;;;;;21.69;53.51;100874.59;4997908;28;20173;-71
2021/06/18 02:11:26;;;;;;;10.03;6.20;;;;;;;21.67;53.56;100874.75;4998081;28;20657;-71
2021/06/18 02:13:53;;;;;;;8.57;6.30;;;;;;;21.61;53.94;100879.94;4997814;28;20938;-71
2021/06/18 02:16:19;;;;;;;13.13;6.80;;;;;;;21.56;54.12;100876.78;5015233;28;20197;-70
2021/06/18 02:18:45;;;;;;;11.83;6.70;;;;;;;21.57;53.89;100883.94;4997732;28;20659;-73
2021/06/18 02:21:13;;;;;;;9.10;6.27;;;;;;;21.52;54.17;100879.81;4997150;28;20180;-72
2021/06/18 02:23:39;;;;;;;8.73;6.00;;;;;;;21.48;54.17;100872.09;4997649;28;20232;-73
2021/06/18 02:26:06;;;;;;;9.13;6.23;;;;;;;21.40;54.42;100881.00;4997537;28;20173;-73
2021/06/18 02:28:32;;;;;;;9.93;6.50;;;;;;;21.37;54.61;100886.75;4997677;28;20180;-72
2021/06/18 02:30:57;;;;;;;10.07;6.33;;;;;;;21.36;54.73;100878.75;4997536;28;20181;-72
2021/06/18 02:33:23;;;;;;;8.90;6.73;;;;;;;21.41;54.65;100882.72;4997424;28;20224;-73
2021/06/18 02:35:49;;;;;;;8.07;6.30;;;;;;;21.34;54.98;100875.34;5014892;28;20568;-73
2021/06/18 02:38:14;;;;;;;8.53;6.67;;;;;;;21.30;55.16;100879.34;4997633;28;20177;-73
2021/06/18 02:40:41;;;;;;;7.20;6.10;;;;;;;21.31;54.76;100876.50;4997494;28;20184;-73
2021/06/18 02:43:06;;;;;;;9.80;6.53;;;;;;;21.29;54.93;100875.78;4981105;28;20185;-73
2021/06/18 02:45:32;;;;;;;8.13;6.67;;;;;;;21.33;54.81;100874.47;5014851;28;20319;-73
2021/06/18 02:48:01;;;;;;;9.70;6.03;;;;;;;21.30;54.82;100877.50;4997485;28;20216;-73
2021/06/18 02:50:43;;;;;;;7.47;6.70;;;;;;;21.25;55.21;100876.22;4997333;28;20231;-73
2021/06/18 02:53:17;;;;;;;7.63;6.00;;;;;;;21.25;55.35;100868.94;4996972;28;20176;-74
2021/06/18 02:56:01;;;;;;;9.23;6.50;;;;;;;21.24;55.42;100874.53;5014390;28;20193;-73
2021/06/18 02:58:36;;;;;;;9.47;6.13;;;;;;;21.21;55.51;100864.78;5014844;28;20248;-73
2021/06/18 03:01:02;;;;;;;8.50;6.43;;;;;;;21.14;55.77;100871.78;4980777;28;20176;-71
2021/06/18 03:03:48;;;;;;;10.20;5.97;;;;;;;21.16;55.75;100870.63;4997201;28;20242;-70
2021/06/18 03:06:15;;;;;;;10.77;7.07;;;;;;;21.16;55.67;100878.78;4996294;28;20649;-72
2021/06/18 03:09:04;;;;;;;8.17;6.67;;;;;;;21.08;56.11;100875.09;5014518;28;20234;-73
2021/06/18 03:11:32;;;;;;;10.13;6.47;;;;;;;20.98;56.40;100874.28;5013802;28;20196;-73
2021/06/18 03:13:59;;;;;;;10.37;6.97;;;;;;;21.02;56.33;100881.13;4996574;28;20203;-73
2021/06/18 03:16:28;;;;;;;10.00;6.73;;;;;;;21.02;56.33;100878.41;4980633;28;20193;-73
2021/06/18 03:18:55;;;;;;;6.70;6.00;;;;;;;20.97;56.73;100889.72;4996824;28;20280;-73
2021/06/18 03:21:21;;;;;;;9.27;6.37;;;;;;;20.91;56.89;100879.44;5014186;28;20188;-73
2021/06/18 03:23:48;;;;;;;8.60;6.80;;;;;;;20.98;56.80;100882.41;4996341;28;20192;-73
2021/06/18 03:26:13;;;;;;;10.00;6.43;;;;;;;21.04;56.06;100879.13;4996323;28;20192;-73
2021/06/18 03:28:39;;;;;;;13.97;6.77;;;;;;;21.05;55.77;100878.13;4996377;28;20630;-73
2021/06/18 03:31:08;;;;;;;11.10;6.40;;;;;;;21.18;55.65;100882.19;4980108;28;20260;-73
2021/06/18 03:33:34;;;;;;;10.27;6.50;;;;;;;21.26;55.67;100877.94;5013848;28;20215;-73
2021/06/18 03:36:00;;;;;;;8.93;6.90;;;;;;;21.29;55.42;100888.50;4996266;28;20681;-73
2021/06/18 03:38:25;;;;;;;12.20;6.97;;;;;;;21.30;55.47;100884.78;5014180;28;20204;-73
2021/06/18 03:40:51;;;;;;;9.20;6.20;;;;;;;21.29;55.58;100886.66;4996439;28;20634;-72
2021/06/18 03:43:16;;;;;;;10.00;6.03;;;;;;;21.30;55.87;100888.34;4996024;28;20247;-71
2021/06/18 03:45:50;;;;;;;7.57;6.00;;;;;;;21.27;55.91;100885.94;4996429;28;20207;-73
2021/06/18 03:48:16;;;;;;;7.17;6.33;;;;;;;21.32;55.62;100893.63;4979695;28;20177;-73
2021/06/18 03:50:42;;;;;;;8.73;6.00;;;;;;;21.36;55.75;100889.59;4980061;28;20181;-73
2021/06/18 03:53:09;;;;;;;9.07;6.20;;;;;;;21.38;55.69;100896.59;4995849;28;20188;-73
2021/06/18 03:55:34;;;;;;;9.07;5.67;;;;;;;21.40;55.80;100891.88;4995886;28;20193;-73
2021/06/18 03:58:00;;;;;;;9.33;6.63;;;;;;;21.40;55.90;100889.16;5014165;28;20176;-74
2021/06/18 04:00:26;;;;;;;11.57;6.80;;;;;;;21.44;55.69;100893.28;4996286;28;20172;-73
2021/06/18 04:02:51;;;;;;;7.73;6.37;;;;;;;21.46;55.77;100887.69;4996428;28;20657;-74
2021/06/18 04:05:19;;;;;;;11.17;6.17;;;;;;;21.43;55.71;100891.56;4979616;28;20205;-73
2021/06/18 04:07:46;;;;;;;7.50;6.70;;;;;;;21.45;55.93;100889.56;4996124;28;20212;-72
2021/06/18 04:10:13;;;;;;;10.63;6.27;;;;;;;21.47;56.27;100882.13;4996176;28;20173;-73
2021/06/18 04:12:38;;;;;;;10.80;7.57;;;;;;;21.46;56.68;100887.69;5013646;28;20189;-73
2021/06/18 04:15:04;;;;;;;8.37;6.87;;;;;;;21.44;56.91;100887.84;4995638;28;20292;-72
2021/06/18 04:17:30;;;;;;;9.77;6.67;;;;;;;21.47;57.00;100884.84;4995756;28;20192;-73
2021/06/18 04:19:56;;;;;;;9.37;7.23;;;;;;;21.48;56.31;100889.25;4979380;28;20555;-72
2021/06/18 04:22:30;;;;;;;11.97;6.83;;;;;;;21.54;55.96;100888.66;5013943;28;20184;-72
2021/06/18 04:24:55;;;;;;;10.03;6.63;;;;;;;21.63;56.00;100894.22;4996023;28;20288;-73
2021/06/18 04:27:21;;;;;;;8.77;6.40;;;;;;;21.72;55.97;100891.44;4996385;28;20185;-73
2021/06/18 04:29:46;;;;;;;8.40;7.00;;;;;;;21.79;56.21;100891.69;5013595;28;20211;-73
2021/06/18 04:32:11;;;;;;;11.93;7.00;;;;;;;21.84;55.78;100892.06;4996037;28;20221;-73
2021/06/18 04:34:36;;;;;;;12.23;6.83;;;;;;;21.87;56.22;100893.63;4996011;28;20208;-72
2021/06/18 04:37:02;;;;;;;12.10;7.13;;;;;;;21.92;55.89;100892.16;5013639;28;20185;-73
2021/06/18 04:39:27;;;;;;;10.80;6.70;;;;;;;21.95;55.55;100897.31;4979589;28;20181;-73
2021/06/18 04:41:53;;;;;;;9.23;6.47;;;;;;;22.01;56.25;100899.41;5013935;28;20208;-73
2021/06/18 04:44:18;;;;;;;9.30;7.50;;;;;;;22.02;55.98;100898.41;5014180;28;20201;-73
2021/06/18 04:46:43;;;;;;;10.30;6.77;;;;;;;22.10;55.39;100897.66;5017227;28;20180;-73
2021/06/18 04:49:08;;;;;;;9.70;6.30;;;;;;;22.22;55.30;100901.00;5017316;28;20185;-74
2021/06/18 04:51:34;;;;;;;7.30;6.23;;;;;;;22.29;55.58;100904.81;5017110;28;20646;-73
2021/06/18 04:53:59;;;;;;;7.63;6.27;;;;;;;22.38;55.42;100903.91;4999436;28;20232;-73
2021/06/18 04:56:24;;;;;;;10.03;6.67;;;;;;;22.36;55.18;100905.91;4983316;28;20584;-73
2021/06/18 04:58:50;;;;;;;11.37;6.73;;;;;;;22.42;54.68;100906.16;4999250;28;20211;-74
2021/06/18 05:01:15;;;;;;;8.60;6.20;;;;;;;22.33;55.66;100906.22;5016904;28;20177;-73
2021/06/18 05:03:41;;;;;;;14.27;6.30;;;;;;;22.46;54.10;100906.69;4999605;28;20260;-74
2021/06/18 05:06:06;;;;;;;15.03;6.47;;;;;;;22.41;54.29;100899.00;5017498;28;20168;-73
2021/06/18 05:08:31;;;;;;;9.60;6.93;;;;;;;22.62;54.39;100905.97;5016836;28;20565;-73
2021/06/18 05:10:57;;;;;;;8.83;6.37;;;;;;;22.65;53.96;100902.91;5016674;28;20173;-73
2021/06/18 05:13:22;;;;;;;9.67;6.50;;;;;;;22.81;54.45;100894.94;4999447;28;20562;-73
2021/06/18 05:15:48;;;;;;;10.27;6.20;;;;;;;22.93;54.27;100895.53;4998959;28;20196;-73
2021/06/18 05:18:13;;;;;;;8.33;6.40;;;;;;;22.90;54.74;100904.00;5016912;28;20278;-72
2021/06/18 05:20:38;;;;;;;12.50;7.00;;;;;;;23.01;54.68;100899.16;4999794;28;20183;-72
2021/06/18 05:23:04;;;;;;;15.27;7.20;;;;;;;23.12;54.34;100898.06;5001341;28;20180;-73
2021/06/18 05:25:29;;;;;;;9.90;6.33;;;;;;;23.16;54.64;100904.88;5023153;28;20179;-73
2021/06/18 05:27:54;;;;;;;8.43;6.40;;;;;;;23.23;54.88;100899.63;5020525;28;20546;-73
2021/06/18 05:30:20;;;;;;;11.60;6.13;;;;;;;23.16;53.65;100901.28;4987083;28;20246;-72
2021/06/18 05:32:46;;;;;;;14.17;6.07;;;;;;;23.40;54.15;100894.09;5006828;28;20180;-72
2021/06/18 05:35:11;;;;;;;13.00;6.67;;;;;;;23.52;53.87;100905.59;5000140;28;20237;-73
2021/06/18 05:37:37;;;;;;;24.87;10.77;;;;;;;23.51;53.03;100908.47;5018070;28;20574;-74
2021/06/18 05:40:03;;;;;;;9.17;7.17;;;;;;;23.64;53.39;100898.84;5017482;28;20523;-73
2021/06/18 05:42:28;;;;;;;12.00;6.67;;;;;;;23.73;53.63;100910.63;5016506;28;20176;-74
2021/06/18 05:44:54;;;;;;;15.77;6.07;;;;;;;23.75;53.17;100913.19;4998674;28;20215;-73
2021/06/18 05:47:19;;;;;;;16.83;6.53;;;;;;;23.78;53.71;100927.34;4998746;28;20183;-72
2021/06/18 05:49:45;;;;;;;12.13;6.07;;;;;;;23.86;52.75;100919.22;5015906;28;20173;-73
2021/06/18 05:52:10;;;;;;;22.47;7.30;;;;;;;23.97;51.43;100921.63;5016156;28;20177;-73
2021/06/18 05:54:35;;;;;;;10.03;6.20;;;;;;;24.13;51.61;100922.69;4997857;28;20224;-73
2021/06/18 05:57:01;;;;;;;12.57;6.47;;;;;;;24.19;52.00;100924.75;4997443;28;20601;-73
2021/06/18 05:59:26;;;;;;;11.47;5.73;;;;;;;24.19;52.46;100924.75;5017516;28;20177;-73
2021/06/18 06:01:51;;;;;;;8.50;5.60;;;;;;;24.11;51.55;100922.84;4999061;28;20208;-72
2021/06/18 06:04:17;;;;;;;16.70;6.43;;;;;;;24.19;52.51;100928.34;4981683;28;20259;-72
2021/06/18 06:06:42;;;;;;;8.57;5.50;;;;;;;24.32;52.20;100927.88;4998252;28;20219;-73
2021/06/18 06:09:07;;;;;;;12.63;5.80;;;;;;;24.31;51.43;100932.47;5015330;28;20668;-73
2021/06/18 06:11:34;;;;;;;9.03;5.33;;;;;;;24.52;51.79;100931.97;4998245;28;20169;-72
2021/06/18 06:14:03;;;;;;;6.83;5.20;;;;;;;24.55;50.85;100931.66;4997906;28;20197;-72
2021/06/18 06:16:30;;;;;;;8.60;5.23;;;;;;;24.61;50.41;100920.06;4998505;28;20569;-72
2021/06/18 06:18:56;;;;;;;13.83;4.83;;;;;;;24.80;50.78;100918.88;4997825;28;20192;-72
2021/06/18 06:21:22;;;;;;;6.03;5.17;;;;;;;24.89;49.51;100916.97;5015469;28;20173;-72
2021/06/18 06:23:48;;;;;;;5.30;4.30;;;;;;;25.03;49.21;100919.06;4998239;28;20193;-72
2021/06/18 06:26:13;;;;;;;6.50;4.60;;;;;;;25.07;50.16;100914.94;5016269;28;20530;-72
2021/06/18 06:28:39;;;;;;;8.70;4.27;;;;;;;25.25;48.63;100903.81;4998894;28;20169;-73
2021/06/18 06:31:04;;;;;;;7.93;4.83;;;;;;;25.28;48.31;100903.50;5017011;28;20184;-71
2021/06/18 06:33:29;;;;;;;6.87;4.90;;;;;;;25.39;47.96;100904.97;5000647;28;20201;-73
2021/06/18 06:35:54;;;;;;;7.80;4.50;;;;;;;25.42;47.79;100907.38;5022564;28;20203;-73
2021/06/18 06:38:20;;;;;;;13.30;4.33;;;;;;;25.52;47.22;100916.19;5023715;28;20219;-70
2021/06/18 06:40:49;;;;;;;9.63;4.43;;;;;;;25.42;47.72;100913.69;5022290;28;20173;-73
2021/06/18 06:43:15;;;;;;;5.33;4.30;;;;;;;25.57;47.40;100908.31;5021210;28;20188;-73
2021/06/18 06:45:40;;;;;;;9.33;4.03;;;;;;;25.53;46.22;100915.16;5026051;28;20195;-73
2021/06/18 06:48:06;;;;;;;11.17;4.63;;;;;;;25.63;47.02;100914.94;5009067;28;20191;-73
2021/06/18 06:50:31;;;;;;;7.33;4.70;;;;;;;25.85;46.98;100916.94;5002586;28;20278;-71
2021/06/18 06:52:56;;;;;;;8.57;4.57;;;;;;;25.90;46.05;100916.41;4997516;28;20177;-71
2021/06/18 06:55:22;;;;;;;6.20;4.20;;;;;;;26.10;45.89;100918.53;5015214;28;20232;-72
2021/06/18 06:57:47;;;;;;;7.40;3.87;;;;;;;26.14;45.74;100913.56;4997898;28;20177;-72
2021/06/18 07:00:13;;;;;;;6.80;4.00;;;;;;;26.13;45.39;100926.38;4997983;28;20185;-73
2021/06/18 07:02:38;;;;;;;5.27;3.83;;;;;;;26.24;44.58;100919.63;4997702;28;20691;-72
2021/06/18 07:05:04;;;;;;;7.03;3.80;;;;;;;26.32;44.96;100925.03;5014813;28;20205;-73
2021/06/18 07:07:30;;;;;;;6.57;4.17;;;;;;;26.37;45.31;100919.06;4997676;28;20173;-73
2021/06/18 07:09:55;;;;;;;7.83;4.00;;;;;;;26.51;44.65;100915.56;4998778;28;20183;-73
2021/06/18 07:12:20;;;;;;;4.83;3.80;;;;;;;26.56;44.45;100923.22;5015724;28;20227;-72
2021/06/18 07:14:48;;;;;;;5.97;3.90;;;;;;;26.60;44.29;100917.19;4996739;28;20204;-73
2021/06/18 07:17:13;;;;;;;6.63;3.80;;;;;;;26.82;43.66;100918.22;5014689;28;20181;-73
2021/06/18 07:19:38;;;;;;;6.00;3.73;;;;;;;26.92;43.49;100915.22;5014964;28;20223;-73
2021/06/18 07:22:04;;;;;;;7.00;4.10;;;;;;;27.09;43.03;100912.16;5013940;28;20185;-73
2021/06/18 07:24:30;;;;;;;5.67;3.50;;;;;;;27.01;43.12;100928.66;4980300;28;20200;-72
2021/06/18 07:26:55;;;;;;;9.17;4.20;;;;;;;27.03;43.06;100910.16;5014144;28;20256;-72
2021/06/18 07:29:20;;;;;;;4.43;3.60;;;;;;;27.07;43.09;100906.00;5014375;28;20187;-71
2021/06/18 07:31:46;;;;;;;7.47;4.30;;;;;;;27.18;42.43;100920.31;5014705;28;20185;-73
2021/06/18 07:34:11;;;;;;;6.97;3.70;;;;;;;27.23;41.46;100901.41;4996294;28;20637;-73
2021/06/18 07:36:37;;;;;;;6.57;3.97;;;;;;;27.38;42.60;100913.22;5013765;28;20259;-73
2021/06/18 07:39:04;;;;;;;5.30;3.40;;;;;;;27.59;42.38;100916.06;4996789;28;20270;-72
2021/06/18 07:41:30;;;;;;;6.80;3.97;;;;;;;27.57;41.28;100907.19;4996552;28;20173;-75
2021/06/18 07:43:56;;;;;;;4.57;3.63;;;;;;;27.55;41.43;100909.25;4996411;28;20593;-73
2021/06/18 07:46:23;;;;;;;5.73;3.70;;;;;;;27.36;40.54;100918.03;4996133;28;20173;-72
2021/06/18 07:48:48;;;;;;;4.90;3.57;;;;;;;27.64;41.66;100899.06;4997017;28;20628;-73
2021/06/18 07:51:14;;;;;;;4.60;3.70;;;;;;;27.69;40.88;100899.34;5013877;28;20228;-73
2021/06/18 07:53:39;;;;;;;11.20;3.40;;;;;;;27.79;41.31;100888.91;4996633;28;20346;-72
2021/06/18 07:56:07;;;;;;;12.83;3.57;;;;;;;27.79;40.13;100888.91;5014173;28;20201;-73
2021/06/18 07:58:32;;;;;;;7.53;3.93;;;;;;;27.70;41.10;100890.94;4996798;28;20177;-73
2021/06/18 08:00:57;;;;;;;5.53;3.70;;;;;;;27.82;39.85;100885.78;5014286;28;20258;-74
2021/06/18 08:06:03;;;;;;;4.10;3.50;;;;;;;28.09;40.66;100895.19;5033036;28;20220;-70
2021/06/18 08:08:28;;;;;;;10.23;3.77;;;;;;;28.01;39.96;100889.81;5033528;28;20659;-71
2021/06/18 08:10:53;;;;;;;6.90;3.53;;;;;;;27.91;39.32;100889.28;5033241;28;20183;-69
2021/06/18 08:13:19;;;;;;;5.83;3.33;;;;;;;27.93;38.75;100881.72;5015654;28;20184;-70
2021/06/18 08:15:44;;;;;;;4.67;3.33;;;;;;;28.03;37.77;100883.09;5015296;28;20224;-69
2021/06/18 08:18:09;;;;;;;4.07;3.10;;;;;;;28.08;38.08;100882.53;5033552;28;20176;-69
2021/06/18 08:20:34;;;;;;;9.87;3.30;;;;;;;28.16;36.85;100879.66;5018951;28;20704;-69
2021/06/18 08:23:00;;;;;;;4.27;3.30;;;;;;;28.27;37.68;100881.94;5038142;28;20171;-69
2021/06/18 08:25:25;;;;;;;5.50;2.47;;;;;;;28.13;35.90;100882.78;5019479;28;20737;-70
2021/06/18 08:27:50;;;;;;;4.77;2.87;;;;;;;28.34;36.75;100887.47;5019575;28;20168;-69
2021/06/18 08:30:16;;;;;;;5.47;3.30;;;;;;;28.66;35.71;100879.75;5019412;28;20172;-69
2021/06/18 08:32:42;;;;;;;4.30;2.83;;;;;;;28.50;36.30;100878.13;5036996;28;20199;-69
2021/06/18 08:35:08;;;;;;;6.57;3.37;;;;;;;28.41;36.56;100880.16;5036814;28;20200;-69
2021/06/18 08:37:33;;;;;;;4.67;3.10;;;;;;;28.63;36.54;100881.84;5036966;28;20237;-69
2021/06/18 08:39:58;;;;;;;7.97;3.30;;;;;;;28.93;35.89;100881.69;5002802;28;20172;-69
2021/06/18 08:42:24;;;;;;;5.90;2.70;;;;;;;28.78;34.40;100876.25;5037023;28;20536;-69
2021/06/18 08:44:49;;;;;;;4.20;3.07;;;;;;;28.74;34.88;100883.22;5036685;28;20232;-69
2021/06/18 08:47:14;;;;;;;5.87;3.00;;;;;;;28.63;34.83;100870.03;5036534;28;20173;-69
2021/06/18 08:49:40;;;;;;;3.50;2.80;;;;;;;28.76;34.65;100870.13;5036596;28;20181;-69
2021/06/18 08:52:05;;;;;;;6.90;2.80;;;;;;;29.03;34.55;100865.72;5019334;28;20276;-69
2021/06/18 08:54:44;;;;;;;5.67;2.63;;;;;;;29.16;34.04;100859.47;5019216;28;20194;-69
2021/06/18 08:57:18;;;;;;;4.27;2.77;;;;;;;29.38;33.74;100858.34;5021047;28;20152;-70
2021/06/18 08:59:44;;;;;;;7.37;2.83;;;;;;;29.39;33.48;100856.44;5002427;28;20168;-69
2021/06/18 09:02:10;;;;;;;5.93;3.17;;;;;;;29.39;33.98;100857.28;5036376;28;20184;-69
2021/06/18 09:05:07;;;;;;;5.50;2.77;;;;;;;29.63;32.74;100860.56;5018281;28;20294;-70
2021/06/18 09:07:57;;;;;;;4.37;2.40;;;;;;;29.55;30.81;100845.97;5036402;28;20179;-69
2021/06/18 09:10:28;;;;;;;3.53;2.70;;;;;;;29.25;31.23;100856.34;5018988;28;20247;-70
2021/06/18 09:13:13;;;;;;;6.17;2.60;;;;;;;29.43;31.27;100849.47;5036202;28;20222;-69
2021/06/18 09:16:04;;;;;;;4.93;2.33;;;;;;;29.58;31.62;100854.84;5035936;28;20222;-69
2021/06/18 09:18:37;;;;;;;5.63;2.53;;;;;;;29.81;30.99;100855.38;5031350;28;20218;-69
2021/06/18 09:21:02;;;;;;;4.60;2.50;;;;;;;29.88;29.90;100864.50;5002015;28;20176;-69
2021/06/18 09:23:39;;;;;;;4.57;2.30;;;;;;;29.70;29.50;100855.94;5035806;28;20266;-69
2021/06/18 09:26:18;;;;;;;3.77;2.63;;;;;;;29.79;28.65;100851.97;5018798;28;20187;-69
2021/06/18 09:29:12;;;;;;;5.23;2.30;;;;;;;30.03;28.66;100845.09;5036082;28;20191;-69
2021/06/18 09:31:59;;;;;;;8.63;2.50;;;;;;;30.32;27.82;100841.13;5036072;28;20169;-72
2021/06/18 09:35:00;;;;;;;5.82;2.90;;;;;;;30.30;28.32;100851.50;5018191;28;20265;-68
2021/06/18 09:37:39;;;;;;;4.13;2.40;;;;;;;30.43;27.82;100851.50;5030904;28;20197;-69
2021/06/18 09:40:08;;;;;;;3.90;2.83;;;;;;;30.53;27.88;100854.72;5035701;28;20624;-69
2021/06/18 09:42:44;;;;;;;3.63;2.43;;;;;;;30.02;28.75;100849.75;5035617;28;20176;-70
2021/06/18 09:45:15;;;;;;;4.85;2.60;;;;;;;29.93;28.30;100839.97;5035566;28;20188;-68
2021/06/18 09:47:41;;;;;;;5.20;2.53;;;;;;;30.28;28.80;100832.44;5035719;28;20202;-68
2021/06/18 09:50:31;;;;;;;3.35;2.80;;;;;;;30.42;27.59;100845.16;5035641;28;20176;-69
2021/06/18 09:53:09;;;;;;;3.33;2.40;;;;;;;30.28;28.01;100834.34;5035745;28;20176;-69
2021/06/18 09:55:35;;;;;;;4.43;2.65;;;;;;;30.39;27.21;100829.06;5035557;28;20204;-69
2021/06/18 09:58:00;;;;;;;6.47;2.97;;;;;;;30.67;27.38;100836.31;5035259;28;20176;-68
2021/06/18 10:00:26;;;;;;;5.32;2.85;;;;;;;30.79;27.38;100835.44;5035387;28;20640;-69
2021/06/18 10:02:53;;;;;;;8.82;3.28;;;;;;;30.71;27.69;100832.06;5035631;28;20183;-68
2021/06/18 10:05:20;;;;;;;4.00;3.00;;;;;;;30.57;27.88;100830.34;5019144;28;20707;-69
2021/06/18 10:07:52;;;;;;;9.30;2.92;;;;;;;30.47;28.00;100842.59;5018134;28;20172;-69
2021/06/18 10:10:22;;;;;;;4.05;3.13;;;;;;;30.80;26.83;100825.25;5018568;28;20676;-69
2021/06/18 10:12:49;;;;;;;5.90;3.45;;;;;;;30.99;26.81;100812.53;5002407;28;20168;-68
2021/06/18 10:15:16;;;;;;;7.10;2.80;;;;;;;30.95;27.18;100811.28;5035461;28;20204;-69
2021/06/18 10:17:45;;;;;;;4.57;2.80;;;;;;;30.88;27.20;100818.72;5035220;28;20200;-69
2021/06/18 10:20:16;;;;;;;3.15;2.85;;;;;;;30.85;27.11;100836.50;5035483;28;20168;-71
2021/06/18 10:23:10;;;;;;;4.28;2.40;;;;;;;31.12;26.27;100818.00;5036283;28;20540;-68
2021/06/18 10:25:38;;;;;;;8.82;2.75;;;;;;;31.06;26.37;100807.84;5002412;28;20234;-69
2021/06/18 10:28:06;;;;;;;4.25;2.50;;;;;;;31.24;26.06;100813.56;5020921;28;20181;-70
2021/06/18 10:30:35;;;;;;;5.55;3.03;;;;;;;31.64;24.90;100810.66;5024282;28;20353;-68
2021/06/18 10:33:30;;;;;;;6.88;2.80;;;;;;;31.51;24.67;100810.69;5041589;28;20222;-70
2021/06/18 10:36:18;;;;;;;5.10;2.50;;;;;;;31.58;24.07;100808.75;5037174;28;20264;-68
2021/06/18 10:38:45;;;;;;;6.63;2.58;;;;;;;31.55;24.00;100814.69;5034990;28;20243;-68
2021/06/18 10:41:14;;;;;;;6.95;2.25;;;;;;;31.59;23.82;100811.28;5017117;28;20191;-69
2021/06/18 10:43:43;;;;;;;8.20;2.63;;;;;;;31.40;24.20;100821.34;5033933;28;20179;-69
2021/06/18 10:46:30;;;;;;;4.13;2.20;;;;;;;31.60;23.76;100796.44;5034428;28;20187;-69
2021/06/18 10:49:06;;;;;;;5.13;2.60;;;;;;;32.09;22.76;100791.31;5034381;28;20234;-69
2021/06/18 10:51:39;;;;;;;5.50;2.55;;;;;;;32.06;23.02;100798.13;5035211;28;20158;-69
2021/06/18 10:54:06;;;;;;;3.95;2.67;;;;;;;31.47;22.73;100803.91;5034577;28;20264;-69
2021/06/18 10:56:47;;;;;;;3.63;2.42;;;;;;;31.48;22.89;100822.16;5034658;28;20192;-69
2021/06/18 10:59:17;;;;;;;4.95;2.50;;;;;;;31.76;22.92;100817.19;5034571;28;20176;-69
2021/06/18 11:01:43;;;;;;;4.80;2.35;;;;;;;32.34;22.27;100803.25;5016826;28;20668;-69
2021/06/18 11:04:09;;;;;;;3.13;2.22;;;;;;;33.23;21.76;100805.59;5016567;28;20591;-69
2021/06/18 11:06:40;;;;;;;3.92;2.30;;;;;;;33.54;19.98;100806.53;5034794;28;20161;-68
2021/06/18 11:09:06;;;;;;;2.17;1.90;;;;;;;34.69;19.34;100796.06;5034261;28;20183;-69
2021/06/18 11:11:31;;;;;;;3.38;2.45;;;;;;;36.48;18.02;100800.66;5016419;28;20172;-69
2021/06/18 11:14:08;;;;;;;4.72;2.42;;;;;;;37.80;17.07;100792.22;5034342;28;20184;-70
2021/06/18 11:16:35;;;;;;;3.35;2.60;;;;;;;38.34;16.89;100796.97;5034098;28;20195;-68
2021/06/18 11:19:28;;;;;;;5.40;2.33;;;;;;;39.83;15.85;100792.00;5034055;28;20541;-69
2021/06/18 11:21:54;;;;;;;3.38;2.13;;;;;;;37.69;16.81;100796.00;5033987;28;20510;-69
2021/06/18 11:24:38;;;;;;;3.75;2.47;;;;;;;39.81;15.62;100778.31;4999490;28;20197;-69
2021/06/18 11:27:19;;;;;;;2.75;2.35;;;;;;;39.67;15.41;100782.72;5000061;28;20168;-70
2021/06/18 11:29:44;;;;;;;3.30;2.22;;;;;;;40.18;14.46;100786.50;5034141;28;20506;-70
2021/06/18 11:32:42;;;;;;;4.70;2.40;;;;;;;38.71;16.15;100792.28;5016017;28;20175;-69